Ringsted, Iowa
Current Conditions -  °F | °C
As of 1:52 PM on Friday 31 Oct 2014 (Local Time) from KEST Reporting Station
Clear Clear  
Wind Chill: 31°   Ceiling: Unl
Heat Index: 38°   Visibility: 10mi
Dew Point: 19°   Wind: 9mph
Humidity: 47%   Direction: 10°N
Pressure: 30.51"   Gusts: NA
Location:  43.29°N, 94.51°W
Report Text: KEST 311852Z AUTO 01008KT 10SM CLR 03/M07 A3051 RMK AO2 SLP347 T00331072
Loading
Personal Weather Stations






























Interactive Weather Map New forecast layout! Learn more

10-Day Weather Forecast

Advertisements
Track Severe Weather on mobile